Matagami Airport
CYNM : now visible

Airfield :











YOU CAN JOIN US ON...

 
LOGIN :

Register | Disclaimer

   EN    FR    IT 

 









Legend :    VFR   Marginal VFR   IFR   Intensive IFR   Very Intensive IFR
Visi :
Ceiling :
>= 8 km
>= 3000ft
5 to 8 km
1000 to 3000 ft
1500m to 5 km
500 to 1000 ft
800 to 1500m
200 to 500 ft
< 800m
< 200 ft
Symbols :   Thunderstorms  Fog  Heavy snow  Heavy precipitations  Wind > 20 kt






- Airport Elevation : 918 ft
- IATA code : YNM


CYNM - Matagami

CURRENT METAR :
  • 181800Z AUTO 20010G18KT 180V250 9SM CLR 27/21 A2994 RMK SLP141 DENSITY ALT 2500FT

EXPIRED METARs :
  • 181710Z AUTO 21012G18KT 180V240 9SM FEW024 26/21 A2996 RMK SLP146 DENSITY ALT 2400FT
  • 181703Z AUTO 20010G19KT 170V230 9SM BKN024 BKN029 26/21 A2996 RMK SLP147 DENSITY ALT 2300FT
  • 181644Z AUTO 21011G20KT 180V250 9SM BKN026 25/20 A2997 RMK SLP151 DENSITY ALT 2200FT
  • 181632Z AUTO 22013G21KT 170V240 9SM BKN022 BKN029 26/21 A2997 RMK SLP149 DENSITY ALT 2400FT
  • 181600Z AUTO 19012G19KT 9SM FEW018 BKN022 BKN081 BKN100 24/21 A2996 RMK SLP150 DENSITY ALT 2200FT
  • 181501Z AUTO 17013G18KT 9SM BKN016 24/21 A2996 RMK SLP149 DENSITY ALT 2200FT
  • 181400Z AUTO 17010KT 9SM CLR 23/20 A2995 RMK SLP145 DENSITY ALT 2100FT

TAF N/A
CZUL FIR / North America



MET'MAP, your aeronautical weather chart ! - Copyright ORBIFLY December 2007 - Disclaimer

ORBIFLY MET'MAP TEAM :

Programming & Development : Alexandra Zaïnal
Original concept : Baudouin d'Aumeries
Technical & hardware support : Manuel Goepfert
Assistance : Marc-Olivier Méhu




SOURCES & CREDITS :

   NOAA       Earth
Advisory